createdAt,value
2019-03-01T00:00:29.731Z,99654.22
2019-03-01T00:02:55.900Z,99654.70
2019-03-01T00:05:34.534Z,99652.31
2019-03-01T00:08:14.390Z,99665.55
2019-03-01T00:11:17.553Z,99676.30
2019-03-01T00:13:53.242Z,99667.51
2019-03-01T00:16:37.805Z,99674.17
2019-03-01T00:19:14.095Z,99673.38
2019-03-01T00:22:00.484Z,99676.21
2019-03-01T00:24:50.056Z,99672.72
2019-03-01T00:27:36.092Z,99658.45
2019-03-01T00:30:26.007Z,99658.63
2019-03-01T00:32:58.433Z,99663.20
2019-03-01T00:35:31.235Z,99661.27
2019-03-01T00:38:21.738Z,99667.51
2019-03-01T00:40:54.240Z,99661.30
2019-03-01T00:43:36.039Z,99664.40
2019-03-01T00:46:02.075Z,99663.64
2019-03-01T00:48:28.049Z,99659.06
2019-03-01T00:50:53.879Z,99652.65
2019-03-01T00:53:20.008Z,99650.11
2019-03-01T00:55:45.970Z,99635.39
2019-03-01T00:58:11.810Z,99633.08
2019-03-01T01:00:41.533Z,99622.28
2019-03-01T01:03:07.490Z,99623.99
2019-03-01T01:05:33.462Z,99627.56
2019-03-01T01:07:59.565Z,99620.83
2019-03-01T01:10:25.493Z,99620.28
2019-03-01T01:12:51.471Z,99621.95
2019-03-01T01:15:17.496Z,99622.66
2019-03-01T01:17:43.329Z,99624.41
2019-03-01T01:20:09.425Z,99628.17
2019-03-01T01:22:35.271Z,99631.70
2019-03-01T01:25:01.174Z,99649.66
2019-03-01T01:27:27.056Z,99638.78
2019-03-01T01:29:52.880Z,99628.91
2019-03-01T01:32:18.809Z,99639.34
2019-03-01T01:34:44.678Z,99636.97
2019-03-01T01:37:10.495Z,99630.39
2019-03-01T01:39:36.334Z,99637.03
2019-03-01T01:42:04.271Z,99642.28
2019-03-01T01:44:30.105Z,99635.86
2019-03-01T01:46:55.912Z,99636.55
2019-03-01T01:49:21.753Z,99643.00
2019-03-01T01:51:47.558Z,99645.17
2019-03-01T01:54:13.423Z,99646.00
2019-03-01T01:56:39.241Z,99641.48
2019-03-01T01:59:05.063Z,99634.30
2019-03-01T02:01:31.222Z,99633.88
2019-03-01T02:03:57.049Z,99642.77
2019-03-01T02:06:22.993Z,99638.02
2019-03-01T02:08:49.018Z,99637.47
2019-03-01T02:11:15.029Z,99633.95
2019-03-01T02:13:40.848Z,99633.25
2019-03-01T02:16:06.816Z,99632.62
2019-03-01T02:18:32.617Z,99638.14
2019-03-01T02:20:58.477Z,99629.95
2019-03-01T02:23:24.343Z,99626.89
2019-03-01T02:25:50.259Z,99623.52
2019-03-01T02:28:16.076Z,99628.09
2019-03-01T02:30:45.764Z,99629.59
2019-03-01T02:33:11.589Z,99629.59
2019-03-01T02:35:37.413Z,99633.58
2019-03-01T02:38:03.243Z,99634.61
2019-03-01T02:40:29.063Z,99624.39
2019-03-01T02:42:55.055Z,99623.90
2019-03-01T02:45:21.031Z,99615.33
2019-03-01T02:47:46.936Z,99610.30
2019-03-01T02:50:14.896Z,99620.03
2019-03-01T02:52:40.727Z,99624.48
2019-03-01T02:55:09.353Z,99615.20
2019-03-01T02:57:35.195Z,99611.13
2019-03-01T03:00:01.157Z,99618.82
2019-03-01T03:02:27.110Z,99616.64
2019-03-01T03:04:52.942Z,99610.52
2019-03-01T03:07:23.639Z,99610.73
2019-03-01T03:09:49.656Z,99604.86
2019-03-01T03:12:15.478Z,99600.72
2019-03-01T03:14:41.563Z,99613.80
2019-03-01T03:17:07.502Z,99608.66
2019-03-01T03:19:33.331Z,99616.70
2019-03-01T03:22:02.647Z,99629.73
2019-03-01T03:24:28.506Z,99630.38
2019-03-01T03:26:54.355Z,99632.86
2019-03-01T03:29:20.207Z,99637.95
2019-03-01T03:31:46.154Z,99640.95
2019-03-01T03:34:12.045Z,99643.70
2019-03-01T03:36:37.874Z,99637.32
2019-03-01T03:39:05.020Z,99637.95
2019-03-01T03:41:31.002Z,99638.81
2019-03-01T03:43:56.826Z,99639.30
2019-03-01T03:46:22.660Z,99633.69
2019-03-01T03:48:48.627Z,99638.55
2019-03-01T03:51:14.571Z,99637.69
2019-03-01T03:53:40.525Z,99631.80
2019-03-01T03:56:06.392Z,99624.05
2019-03-01T03:58:32.358Z,99632.77
2019-03-01T04:00:58.454Z,99625.56
2019-03-01T04:03:24.283Z,99622.44
2019-03-01T04:05:50.314Z,99619.25
2019-03-01T04:08:16.392Z,99625.51
2019-03-01T04:10:42.219Z,99624.88
2019-03-01T04:13:08.190Z,99628.88
2019-03-01T04:15:34.250Z,99637.91
2019-03-01T04:18:00.280Z,99633.84
2019-03-01T04:20:26.200Z,99636.05
2019-03-01T04:22:52.128Z,99640.24
2019-03-01T04:25:18.079Z,99642.64
2019-03-01T04:27:44.010Z,99638.19
2019-03-01T04:30:12.404Z,99639.90
2019-03-01T04:32:38.201Z,99646.61
2019-03-01T04:35:04.440Z,99643.66
2019-03-01T04:37:30.437Z,99642.29
2019-03-01T04:39:56.267Z,99648.91
2019-03-01T04:42:22.238Z,99645.27
2019-03-01T04:44:48.136Z,99651.82
2019-03-01T04:47:14.011Z,99646.61
2019-03-01T04:49:40.193Z,99644.19
2019-03-01T04:52:25.080Z,99635.05
2019-03-01T04:54:50.899Z,99639.06
2019-03-01T04:57:16.774Z,99629.77
2019-03-01T04:59:42.663Z,99630.80
2019-03-01T05:02:08.628Z,99627.16
2019-03-01T05:04:34.487Z,99632.47
2019-03-01T05:07:00.451Z,99617.22
2019-03-01T05:09:26.417Z,99618.83
2019-03-01T05:11:52.254Z,99616.02
2019-03-01T05:14:18.074Z,99614.41
2019-03-01T05:16:44.036Z,99609.52
2019-03-01T05:19:09.865Z,99621.47
2019-03-01T05:21:35.783Z,99621.82
2019-03-01T05:24:01.753Z,99625.41
2019-03-01T05:26:27.583Z,99624.88
2019-03-01T05:28:53.485Z,99632.80
2019-03-01T05:31:19.334Z,99637.05
2019-03-01T05:33:45.167Z,99640.20
2019-03-01T05:36:11.246Z,99648.16
2019-03-01T05:38:37.174Z,99650.91
2019-03-01T05:41:03.005Z,99660.53
2019-03-01T05:43:28.956Z,99656.12
2019-03-01T05:45:54.928Z,99641.41
2019-03-01T05:48:20.771Z,99643.97
2019-03-01T05:50:46.642Z,99655.92
2019-03-01T05:53:12.780Z,99653.36
2019-03-01T05:55:38.764Z,99651.19
2019-03-01T05:58:28.207Z,99655.59
2019-03-01T06:01:00.940Z,99659.58
2019-03-01T06:03:48.445Z,99659.06
2019-03-01T06:06:26.844Z,99650.36
2019-03-01T06:09:19.206Z,99656.59
2019-03-01T06:12:09.824Z,99663.98
2019-03-01T06:15:02.407Z,99671.03
2019-03-01T06:17:52.005Z,99676.42
2019-03-01T06:20:24.576Z,99673.37
2019-03-01T06:23:03.538Z,99679.05
2019-03-01T06:25:33.312Z,99674.66
2019-03-01T06:28:14.732Z,99663.99
2019-03-01T06:30:52.107Z,99669.73
2019-03-01T06:33:37.412Z,99662.27
2019-03-01T06:36:15.835Z,99671.47
2019-03-01T06:38:53.288Z,99669.92
2019-03-01T06:41:41.466Z,99670.13
2019-03-01T06:44:23.401Z,99663.08
2019-03-01T06:47:11.595Z,99660.77
2019-03-01T06:49:48.553Z,99646.05
2019-03-01T06:52:14.617Z,99671.06
2019-03-01T06:54:40.559Z,99667.92
2019-03-01T06:57:06.440Z,99678.42
2019-03-01T06:59:32.315Z,99685.80
2019-03-01T07:01:58.170Z,99679.44
2019-03-01T07:04:24.046Z,99680.52
2019-03-01T07:06:49.901Z,99682.75
2019-03-01T07:09:15.818Z,99681.92
2019-03-01T07:11:41.896Z,99694.55
2019-03-01T07:14:07.936Z,99690.44
2019-03-01T07:16:33.944Z,99682.63
2019-03-01T07:18:59.937Z,99676.14
2019-03-01T07:21:25.880Z,99683.13
2019-03-01T07:23:51.765Z,99677.49
2019-03-01T07:26:17.678Z,99666.86
2019-03-01T07:28:43.621Z,99668.06
2019-03-01T07:31:10.011Z,99660.34
2019-03-01T07:33:35.967Z,99669.95
2019-03-01T07:36:01.810Z,99672.80
2019-03-01T07:38:27.780Z,99671.25
2019-03-01T07:40:53.620Z,99667.03
2019-03-01T07:43:19.512Z,99659.70
2019-03-01T07:45:45.379Z,99652.00
2019-03-01T07:48:11.768Z,99646.98
2019-03-01T07:50:37.543Z,99636.70
2019-03-01T07:53:04.618Z,99633.92
2019-03-01T07:55:30.899Z,99634.34
2019-03-01T07:57:56.743Z,99640.33
2019-03-01T08:00:22.759Z,99644.80
2019-03-01T08:02:48.872Z,99639.11
2019-03-01T08:05:16.482Z,99643.75
2019-03-01T08:07:42.780Z,99646.89
2019-03-01T08:10:12.374Z,99646.62
2019-03-01T08:12:42.157Z,99657.07
2019-03-01T08:15:14.152Z,99653.86
2019-03-01T08:17:39.975Z,99649.40
2019-03-01T08:20:11.387Z,99645.30
2019-03-01T08:22:47.590Z,99640.16
2019-03-01T08:25:07.214Z,99641.09
2019-03-01T08:27:33.203Z,99645.14
2019-03-01T08:29:59.083Z,99632.53
2019-03-01T08:32:27.471Z,99640.97
2019-03-01T08:34:53.749Z,99645.05
2019-03-01T08:37:20.560Z,99651.42
2019-03-01T08:39:46.475Z,99657.80
2019-03-01T08:42:12.725Z,99653.16
2019-03-01T08:44:38.603Z,99648.91
2019-03-01T08:47:04.537Z,99639.40
2019-03-01T08:49:30.390Z,99627.09
2019-03-01T08:51:58.486Z,99616.39
2019-03-01T08:54:26.452Z,99608.45
2019-03-01T08:56:52.284Z,99611.09
2019-03-01T08:59:18.716Z,99606.63
2019-03-01T09:01:45.803Z,99606.84
2019-03-01T09:04:14.209Z,99598.55
2019-03-01T09:06:41.799Z,99601.73
2019-03-01T09:09:08.716Z,99589.67
2019-03-01T09:11:34.863Z,99585.77
2019-03-01T09:14:00.775Z,99577.45
2019-03-01T09:16:26.686Z,99561.06
2019-03-01T09:18:53.208Z,99568.18
2019-03-01T09:21:19.629Z,99564.59
2019-03-01T09:23:48.027Z,99552.70
2019-03-01T09:26:16.566Z,99546.05
2019-03-01T09:28:41.481Z,99537.94
2019-03-01T09:31:07.667Z,99535.55
2019-03-01T09:33:33.610Z,99531.36
2019-03-01T09:36:01.593Z,99538.80
2019-03-01T09:38:27.481Z,99532.77
2019-03-01T09:40:53.711Z,99527.81
2019-03-01T09:43:19.817Z,99526.53
2019-03-01T09:45:48.855Z,99521.91
2019-03-01T09:48:15.374Z,99517.77
2019-03-01T09:50:41.306Z,99515.64
2019-03-01T09:53:07.235Z,99506.06
2019-03-01T09:55:34.766Z,99505.95
2019-03-01T09:58:01.025Z,99513.44
2019-03-01T10:00:56.145Z,99511.55
2019-03-01T10:03:19.781Z,99509.73
2019-03-01T10:05:45.826Z,99505.77
2019-03-01T10:08:11.765Z,99497.27
2019-03-01T10:10:37.808Z,99499.58
2019-03-01T10:13:03.879Z,99504.55
2019-03-01T10:15:29.922Z,99498.00
2019-03-01T10:17:55.743Z,99504.26
2019-03-01T10:20:21.719Z,99510.83
2019-03-01T10:22:47.685Z,99505.53
2019-03-01T10:25:16.443Z,99507.47
2019-03-01T10:27:42.481Z,99504.89
2019-03-01T10:30:22.769Z,99499.02
2019-03-01T10:32:48.696Z,99504.28
2019-03-01T10:35:14.749Z,99489.19
2019-03-01T10:37:40.807Z,99486.18
2019-03-01T10:40:09.784Z,99489.66
2019-03-01T10:42:35.621Z,99487.67
2019-03-01T10:45:01.575Z,99489.16
2019-03-01T10:47:27.419Z,99469.31
2019-03-01T10:49:53.370Z,99476.20
2019-03-01T10:52:19.290Z,99473.48
2019-03-01T10:54:45.125Z,99458.86
2019-03-01T10:57:11.162Z,99463.81
2019-03-01T10:59:37.209Z,99452.99
2019-03-01T11:02:03.275Z,99446.53
2019-03-01T11:04:29.625Z,99452.11
2019-03-01T11:06:55.518Z,99454.47
2019-03-01T11:09:21.549Z,99445.95
2019-03-01T11:11:47.458Z,99443.34
2019-03-01T11:14:13.455Z,99436.33
2019-03-01T11:16:39.456Z,99429.70
2019-03-01T11:19:05.410Z,99427.66
2019-03-01T11:21:31.353Z,99423.97
2019-03-01T11:23:57.168Z,99421.97
2019-03-01T11:26:23.153Z,99406.18
2019-03-01T11:28:49.014Z,99421.08
2019-03-01T11:31:15.053Z,99414.07
2019-03-01T11:33:40.936Z,99425.02
2019-03-01T11:36:06.986Z,99421.84
2019-03-01T11:38:32.854Z,99419.14
2019-03-01T11:40:58.812Z,99408.58
2019-03-01T11:43:24.678Z,99404.13
2019-03-01T11:45:50.630Z,99410.34
2019-03-01T11:48:16.628Z,99404.95
2019-03-01T11:50:42.546Z,99393.16
2019-03-01T11:53:08.532Z,99400.45
2019-03-01T11:55:34.478Z,99395.75
2019-03-01T11:58:00.344Z,99392.91
2019-03-01T12:00:27.676Z,99387.57
2019-03-01T12:02:53.600Z,99385.42
2019-03-01T12:05:20.210Z,99379.06
2019-03-01T12:07:46.243Z,99376.02
2019-03-01T12:10:14.206Z,99373.37
2019-03-01T12:12:40.300Z,99370.22
2019-03-01T12:15:08.328Z,99367.60
2019-03-01T12:17:34.256Z,99369.94
2019-03-01T12:20:00.284Z,99376.52
2019-03-01T12:22:26.107Z,99366.50
2019-03-01T12:24:52.143Z,99368.36
2019-03-01T12:27:18.133Z,99369.35
2019-03-01T12:29:47.280Z,99362.08
2019-03-01T12:32:13.224Z,99370.70
2019-03-01T12:34:39.279Z,99369.36
2019-03-01T12:37:05.337Z,99362.67
2019-03-01T12:39:31.247Z,99358.69
2019-03-01T12:41:57.112Z,99350.38
2019-03-01T12:44:23.030Z,99347.08
2019-03-01T12:46:48.877Z,99330.41
2019-03-01T12:49:14.887Z,99328.50
2019-03-01T12:51:40.710Z,99327.39
2019-03-01T12:54:06.530Z,99327.95
2019-03-01T12:56:32.438Z,99327.69
2019-03-01T12:58:58.278Z,99327.80
2019-03-01T13:01:24.109Z,99323.50
2019-03-01T13:03:50.027Z,99330.66
2019-03-01T13:06:15.939Z,99329.97
2019-03-01T13:08:41.734Z,99334.68
2019-03-01T13:11:07.575Z,99322.93
2019-03-01T13:13:34.667Z,99333.39
2019-03-01T13:16:01.257Z,99334.19
2019-03-01T13:18:27.126Z,99320.80
2019-03-01T13:20:52.950Z,99317.56
2019-03-01T13:23:18.898Z,99305.41
2019-03-01T13:25:44.963Z,99291.87
2019-03-01T13:28:10.926Z,99283.20
2019-03-01T13:30:36.852Z,99282.91
2019-03-01T13:33:03.650Z,99264.41
2019-03-01T13:35:29.690Z,99274.38
2019-03-01T13:37:56.748Z,99272.30
2019-03-01T13:40:24.386Z,99273.44
2019-03-01T13:42:51.806Z,99266.08
2019-03-01T13:45:20.620Z,99265.48
2019-03-01T13:47:46.828Z,99266.35
2019-03-01T13:50:15.672Z,99275.14
2019-03-01T13:52:41.996Z,99269.84
2019-03-01T13:55:09.288Z,99278.31
2019-03-01T13:57:35.126Z,99265.39
2019-03-01T14:00:01.146Z,99268.33
2019-03-01T14:02:27.074Z,99262.19
2019-03-01T14:04:52.922Z,99254.87
2019-03-01T14:07:18.804Z,99257.13
2019-03-01T14:09:44.741Z,99259.71
2019-03-01T14:12:10.566Z,99246.76
2019-03-01T14:14:36.575Z,99250.62
2019-03-01T14:17:02.599Z,99237.73
2019-03-01T14:19:28.452Z,99233.61
2019-03-01T14:21:54.351Z,99249.98
2019-03-01T14:24:20.175Z,99254.64
2019-03-01T14:26:46.172Z,99253.98
2019-03-01T14:29:12.782Z,99252.67
2019-03-01T14:31:39.731Z,99255.55
2019-03-01T14:34:08.299Z,99251.27
2019-03-01T14:36:34.439Z,99251.88
2019-03-01T14:39:00.265Z,99243.34
2019-03-01T14:41:26.223Z,99242.62
2019-03-01T14:43:52.176Z,99244.80
2019-03-01T14:46:20.934Z,99255.45
2019-03-01T14:48:46.175Z,99258.06
2019-03-01T14:51:12.803Z,99258.19
2019-03-01T14:53:38.698Z,99261.36
2019-03-01T14:56:16.801Z,99265.24
2019-03-01T14:59:13.612Z,99263.83
2019-03-01T15:01:55.116Z,99267.50
2019-03-01T15:04:21.015Z,99265.72
2019-03-01T15:06:46.847Z,99269.10
2019-03-01T15:09:12.983Z,99269.16
2019-03-01T15:11:41.166Z,99262.80
2019-03-01T15:14:12.075Z,99268.89
2019-03-01T15:16:34.873Z,99271.33
2019-03-01T15:19:00.705Z,99267.89
2019-03-01T15:21:26.641Z,99271.88
2019-03-01T15:23:52.637Z,99262.02
2019-03-01T15:26:18.524Z,99268.57
2019-03-01T15:28:46.472Z,99273.92
2019-03-01T15:31:12.297Z,99276.80
2019-03-01T15:33:38.257Z,99281.22
2019-03-01T15:36:04.186Z,99275.39
2019-03-01T15:38:30.003Z,99278.80
2019-03-01T15:40:56.056Z,99284.91
2019-03-01T15:43:21.890Z,99281.11
2019-03-01T15:45:48.004Z,99272.20
2019-03-01T15:48:13.951Z,99270.23
2019-03-01T15:50:39.909Z,99276.97
2019-03-01T15:53:06.005Z,99280.80
2019-03-01T15:55:31.946Z,99284.23
2019-03-01T15:57:57.788Z,99284.41
2019-03-01T16:00:25.689Z,99285.41
2019-03-01T16:02:53.210Z,99284.90
2019-03-01T16:05:19.460Z,99294.90
2019-03-01T16:07:45.525Z,99298.52
2019-03-01T16:10:13.383Z,99303.14
2019-03-01T16:12:39.319Z,99297.44
2019-03-01T16:15:10.907Z,99306.78
2019-03-01T16:17:36.927Z,99296.59
2019-03-01T16:20:06.688Z,99292.52
2019-03-01T16:22:32.551Z,99292.61
2019-03-01T16:24:58.466Z,99302.19
2019-03-01T16:27:24.332Z,99311.51
2019-03-01T16:29:50.155Z,99309.80
2019-03-01T16:32:16.143Z,99303.30
2019-03-01T16:34:45.214Z,99294.29
2019-03-01T16:37:11.060Z,99296.74
2019-03-01T16:39:37.086Z,99304.83
2019-03-01T16:42:03.032Z,99303.80
2019-03-01T16:44:28.848Z,99298.08
2019-03-01T16:46:54.721Z,99306.52
2019-03-01T16:49:23.628Z,99306.87
2019-03-01T16:51:50.668Z,99313.38
2019-03-01T16:54:16.516Z,99319.80
2019-03-01T16:56:42.518Z,99324.91
2019-03-01T16:59:08.489Z,99327.41
2019-03-01T17:01:34.419Z,99335.53
2019-03-01T17:04:00.737Z,99332.61
2019-03-01T17:06:26.761Z,99330.56
2019-03-01T17:08:53.282Z,99334.58
2019-03-01T17:11:19.161Z,99332.27
2019-03-01T17:13:45.097Z,99332.50
2019-03-01T17:16:11.071Z,99332.69
2019-03-01T17:18:37.024Z,99324.48
2019-03-01T17:21:03.061Z,99340.91
2019-03-01T17:23:28.924Z,99350.69
2019-03-01T17:25:54.756Z,99348.39
2019-03-01T17:28:22.699Z,99355.91
2019-03-01T17:30:50.790Z,99353.09
2019-03-01T17:33:16.117Z,99356.77
2019-03-01T17:35:42.174Z,99358.26
2019-03-01T17:38:08.295Z,99363.63
2019-03-01T17:40:35.814Z,99358.55
2019-03-01T17:43:01.814Z,99366.91
2019-03-01T17:45:27.639Z,99371.73
2019-03-01T17:47:55.320Z,99375.08
2019-03-01T17:50:21.450Z,99375.70
2019-03-01T17:52:47.372Z,99376.45
2019-03-01T17:55:17.720Z,99377.09
2019-03-01T17:57:43.649Z,99379.44
2019-03-01T18:00:12.159Z,99378.72
2019-03-01T18:02:38.002Z,99382.06
2019-03-01T18:05:06.790Z,99393.96
2019-03-01T18:07:32.632Z,99392.80
2019-03-01T18:09:58.585Z,99400.91
2019-03-01T18:12:24.542Z,99403.08
2019-03-01T18:14:50.468Z,99408.67
2019-03-01T18:17:16.290Z,99414.13
2019-03-01T18:19:42.266Z,99418.17
2019-03-01T18:22:08.146Z,99414.80
2019-03-01T18:24:33.998Z,99414.30
2019-03-01T18:26:59.968Z,99418.37
2019-03-01T18:29:25.834Z,99421.30
2019-03-01T18:31:51.793Z,99424.81
2019-03-01T18:34:17.631Z,99430.56
2019-03-01T18:36:45.708Z,99430.23
2019-03-01T18:39:11.488Z,99432.30
2019-03-01T18:41:37.823Z,99441.16
2019-03-01T18:44:03.781Z,99451.20
2019-03-01T18:46:29.731Z,99450.94
2019-03-01T18:48:55.874Z,99453.84
2019-03-01T18:51:21.946Z,99458.88
2019-03-01T18:53:47.878Z,99456.02
2019-03-01T18:56:13.755Z,99451.82
2019-03-01T18:58:39.591Z,99458.72
2019-03-01T19:01:07.738Z,99447.80
2019-03-01T19:03:36.569Z,99453.84
2019-03-01T19:06:04.672Z,99456.97
2019-03-01T19:08:30.719Z,99460.84
2019-03-01T19:10:59.672Z,99461.84
2019-03-01T19:13:25.674Z,99466.59
2019-03-01T19:15:54.452Z,99469.61
2019-03-01T19:18:19.655Z,99465.36
2019-03-01T19:20:47.779Z,99466.33
2019-03-01T19:23:13.635Z,99465.41
2019-03-01T19:25:39.579Z,99478.86
2019-03-01T19:28:05.563Z,99482.20
2019-03-01T19:30:31.497Z,99486.75
2019-03-01T19:32:58.883Z,99486.80
2019-03-01T19:35:29.575Z,99497.85
2019-03-01T19:37:57.166Z,99493.19
2019-03-01T19:40:23.467Z,99493.89
2019-03-01T19:42:49.537Z,99498.28
2019-03-01T19:45:17.970Z,99507.53
2019-03-01T19:47:44.035Z,99510.97
2019-03-01T19:50:11.896Z,99521.23
2019-03-01T19:52:37.749Z,99527.22
2019-03-01T19:55:08.020Z,99532.19
2019-03-01T19:57:36.378Z,99532.23
2019-03-01T20:00:04.114Z,99537.22
2019-03-01T20:02:30.972Z,99534.05
2019-03-01T20:04:57.593Z,99537.09
2019-03-01T20:07:23.445Z,99548.64
2019-03-01T20:09:49.353Z,99538.73
2019-03-01T20:12:15.410Z,99548.28
2019-03-01T20:14:41.243Z,99551.05
2019-03-01T20:17:07.292Z,99558.19
2019-03-01T20:19:33.145Z,99565.09
2019-03-01T20:21:59.143Z,99563.14
2019-03-01T20:24:24.987Z,99575.84
2019-03-01T20:26:51.046Z,99572.47
2019-03-01T20:29:16.902Z,99567.53
2019-03-01T20:31:42.791Z,99565.27
2019-03-01T20:34:08.637Z,99576.13
2019-03-01T20:36:34.731Z,99572.42
2019-03-01T20:39:00.857Z,99572.00
2019-03-01T20:41:26.683Z,99575.41
2019-03-01T20:43:52.560Z,99570.92
2019-03-01T20:46:18.427Z,99570.92
2019-03-01T20:48:44.425Z,99572.20
2019-03-01T20:51:10.354Z,99572.33
2019-03-01T20:53:36.187Z,99577.61
2019-03-01T20:56:02.206Z,99581.77
2019-03-01T20:58:28.027Z,99579.02
2019-03-01T21:00:54.055Z,99582.98
2019-03-01T21:03:20.044Z,99591.71
2019-03-01T21:05:45.887Z,99593.92
2019-03-01T21:08:11.823Z,99590.44
2019-03-01T21:10:37.713Z,99590.08
2019-03-01T21:13:03.701Z,99599.03
2019-03-01T21:15:29.558Z,99596.20
2019-03-01T21:17:57.135Z,99592.98
2019-03-01T21:20:23.367Z,99590.88
2019-03-01T21:22:49.378Z,99594.88
2019-03-01T21:25:23.536Z,99600.30
2019-03-01T21:27:49.464Z,99598.02
2019-03-01T21:30:28.909Z,99600.62
2019-03-01T21:32:54.981Z,99606.19
2019-03-01T21:35:21.031Z,99609.84
2019-03-01T21:37:47.084Z,99604.78
2019-03-01T21:40:16.380Z,99606.96
2019-03-01T21:42:42.311Z,99613.27
2019-03-01T21:45:17.825Z,99612.73
2019-03-01T21:47:44.635Z,99612.72
2019-03-01T21:50:12.290Z,99611.77
2019-03-01T21:52:39.248Z,99621.31
2019-03-01T21:55:13.519Z,99616.33
2019-03-01T21:57:39.472Z,99626.05
2019-03-01T22:00:09.169Z,99623.52
2019-03-01T22:02:35.106Z,99631.36
2019-03-01T22:05:01.140Z,99633.47
2019-03-01T22:07:27.082Z,99630.11
2019-03-01T22:09:53.011Z,99639.44
2019-03-01T22:12:20.865Z,99646.36
2019-03-01T22:14:49.031Z,99653.30
2019-03-01T22:17:14.465Z,99651.84
2019-03-01T22:19:40.307Z,99657.75
2019-03-01T22:22:07.384Z,99670.31
2019-03-01T22:24:34.214Z,99669.19
2019-03-01T22:27:00.242Z,99670.11
2019-03-01T22:29:26.276Z,99664.97
2019-03-01T22:31:52.121Z,99671.49
2019-03-01T22:34:18.027Z,99671.94
2019-03-01T22:36:43.959Z,99665.11
2019-03-01T22:39:09.883Z,99676.50
2019-03-01T22:41:39.297Z,99681.13
2019-03-01T22:44:03.594Z,99685.39
2019-03-01T22:46:29.445Z,99680.55
2019-03-01T22:48:56.684Z,99681.74
2019-03-01T22:51:23.370Z,99690.05
2019-03-01T22:53:49.226Z,99687.41
2019-03-01T22:56:15.189Z,99697.86
2019-03-01T22:58:41.006Z,99698.50
2019-03-01T23:01:09.429Z,99707.11
2019-03-01T23:03:35.367Z,99706.67
2019-03-01T23:06:01.335Z,99711.52
2019-03-01T23:08:27.473Z,99712.28
2019-03-01T23:10:53.768Z,99700.48
2019-03-01T23:13:21.849Z,99706.38
2019-03-01T23:15:47.917Z,99705.52
2019-03-01T23:18:13.756Z,99709.09
2019-03-01T23:20:40.370Z,99705.05
2019-03-01T23:23:06.229Z,99707.17
2019-03-01T23:25:32.037Z,99706.13
2019-03-01T23:27:57.925Z,99708.08
2019-03-01T23:30:25.738Z,99705.97
2019-03-01T23:32:52.683Z,99702.84
2019-03-01T23:35:19.413Z,99697.83
2019-03-01T23:37:45.293Z,99703.30
2019-03-01T23:40:11.228Z,99703.15
2019-03-01T23:42:37.265Z,99705.94
2019-03-01T23:45:08.477Z,99693.63
2019-03-01T23:47:34.733Z,99703.77
2019-03-01T23:50:04.002Z,99701.20
2019-03-01T23:52:29.825Z,99702.45
2019-03-01T23:54:55.835Z,99700.36
2019-03-01T23:57:21.682Z,99706.30
2019-03-01T23:59:47.523Z,99716.52
